sensor_id;sensor_type;location;lat;lon;timestamp;P1;durP1;ratioP1;P2;durP2;ratioP2
23642;SDS011;11998;55.788;37.572;2023-04-03T00:00:25;17.47;;;12.90;;
23642;SDS011;11998;55.788;37.572;2023-04-03T00:01:26;14.07;;;11.97;;
23642;SDS011;11998;55.788;37.572;2023-04-03T00:02:26;18.13;;;12.57;;
23642;SDS011;11998;55.788;37.572;2023-04-03T00:03:27;15.40;;;13.43;;
23642;SDS011;11998;55.788;37.572;2023-04-03T00:04:27;17.37;;;12.57;;
23642;SDS011;11998;55.788;37.572;2023-04-03T00:05:28;16.80;;;12.27;;
23642;SDS011;11998;55.788;37.572;2023-04-03T00:06:28;14.03;;;12.53;;
23642;SDS011;11998;55.788;37.572;2023-04-03T00:07:28;15.30;;;12.93;;
23642;SDS011;11998;55.788;37.572;2023-04-03T00:08:29;18.83;;;12.77;;
23642;SDS011;11998;55.788;37.572;2023-04-03T00:09:30;14.90;;;12.30;;
23642;SDS011;11998;55.788;37.572;2023-04-03T00:10:31;14.43;;;12.23;;
23642;SDS011;11998;55.788;37.572;2023-04-03T00:11:31;16.23;;;13.17;;
23642;SDS011;11998;55.788;37.572;2023-04-03T00:12:32;14.60;;;12.40;;
23642;SDS011;11998;55.788;37.572;2023-04-03T00:13:33;14.87;;;12.50;;
23642;SDS011;11998;55.788;37.572;2023-04-03T00:14:33;13.93;;;12.50;;
23642;SDS011;11998;55.788;37.572;2023-04-03T00:15:34;18.23;;;12.63;;
23642;SDS011;11998;55.788;37.572;2023-04-03T00:16:34;14.67;;;12.83;;
23642;SDS011;11998;55.788;37.572;2023-04-03T00:17:35;15.77;;;13.67;;
23642;SDS011;11998;55.788;37.572;2023-04-03T00:18:35;17.47;;;13.23;;
23642;SDS011;11998;55.788;37.572;2023-04-03T00:19:36;15.17;;;12.80;;
23642;SDS011;11998;55.788;37.572;2023-04-03T00:20:36;15.23;;;12.77;;
23642;SDS011;11998;55.788;37.572;2023-04-03T00:21:36;14.50;;;12.53;;
23642;SDS011;11998;55.788;37.572;2023-04-03T00:22:37;14.80;;;12.93;;
23642;SDS011;11998;55.788;37.572;2023-04-03T00:23:37;15.23;;;12.40;;
23642;SDS011;11998;55.788;37.572;2023-04-03T00:24:38;15.67;;;13.10;;
23642;SDS011;11998;55.788;37.572;2023-04-03T00:25:38;15.43;;;12.57;;
23642;SDS011;11998;55.788;37.572;2023-04-03T00:26:39;15.77;;;12.33;;
23642;SDS011;11998;55.788;37.572;2023-04-03T00:27:40;16.00;;;13.27;;
23642;SDS011;11998;55.788;37.572;2023-04-03T00:28:40;17.50;;;13.73;;
23642;SDS011;11998;55.788;37.572;2023-04-03T00:29:41;19.00;;;13.47;;
23642;SDS011;11998;55.788;37.572;2023-04-03T00:30:41;18.93;;;13.63;;
23642;SDS011;11998;55.788;37.572;2023-04-03T00:31:42;17.93;;;15.90;;
23642;SDS011;11998;55.788;37.572;2023-04-03T00:32:42;21.80;;;16.93;;
23642;SDS011;11998;55.788;37.572;2023-04-03T00:33:42;19.93;;;15.50;;
23642;SDS011;11998;55.788;37.572;2023-04-03T00:34:43;19.07;;;15.23;;
23642;SDS011;11998;55.788;37.572;2023-04-03T00:35:43;18.93;;;16.03;;
23642;SDS011;11998;55.788;37.572;2023-04-03T00:36:44;20.73;;;17.33;;
23642;SDS011;11998;55.788;37.572;2023-04-03T00:37:44;24.57;;;19.60;;
23642;SDS011;11998;55.788;37.572;2023-04-03T00:38:45;24.10;;;19.33;;
23642;SDS011;11998;55.788;37.572;2023-04-03T00:39:46;26.07;;;19.40;;
23642;SDS011;11998;55.788;37.572;2023-04-03T00:40:47;19.53;;;17.43;;
23642;SDS011;11998;55.788;37.572;2023-04-03T00:41:47;22.30;;;17.70;;
23642;SDS011;11998;55.788;37.572;2023-04-03T00:42:49;19.87;;;17.00;;
23642;SDS011;11998;55.788;37.572;2023-04-03T00:43:51;21.13;;;14.60;;
23642;SDS011;11998;55.788;37.572;2023-04-03T00:45:57;17.87;;;13.07;;
23642;SDS011;11998;55.788;37.572;2023-04-03T00:46:58;17.80;;;13.53;;
23642;SDS011;11998;55.788;37.572;2023-04-03T00:47:59;15.37;;;12.20;;
23642;SDS011;11998;55.788;37.572;2023-04-03T00:49:00;19.90;;;13.03;;
23642;SDS011;11998;55.788;37.572;2023-04-03T00:50:00;15.37;;;12.20;;
23642;SDS011;11998;55.788;37.572;2023-04-03T00:51:02;15.27;;;12.67;;
23642;SDS011;11998;55.788;37.572;2023-04-03T00:52:02;13.97;;;12.47;;
23642;SDS011;11998;55.788;37.572;2023-04-03T00:53:04;15.23;;;13.00;;
23642;SDS011;11998;55.788;37.572;2023-04-03T00:54:05;16.50;;;13.23;;
23642;SDS011;11998;55.788;37.572;2023-04-03T00:55:07;16.97;;;13.50;;
23642;SDS011;11998;55.788;37.572;2023-04-03T00:56:09;16.53;;;12.30;;
23642;SDS011;11998;55.788;37.572;2023-04-03T00:57:10;14.30;;;11.33;;
23642;SDS011;11998;55.788;37.572;2023-04-03T00:58:11;17.83;;;13.20;;
23642;SDS011;11998;55.788;37.572;2023-04-03T00:59:13;17.87;;;13.53;;
23642;SDS011;11998;55.788;37.572;2023-04-03T01:00:16;16.00;;;13.63;;
23642;SDS011;11998;55.788;37.572;2023-04-03T01:01:19;19.33;;;14.80;;
23642;SDS011;11998;55.788;37.572;2023-04-03T01:02:21;16.90;;;14.10;;
23642;SDS011;11998;55.788;37.572;2023-04-03T01:03:22;18.07;;;14.50;;
23642;SDS011;11998;55.788;37.572;2023-04-03T01:04:30;19.30;;;15.73;;
23642;SDS011;11998;55.788;37.572;2023-04-03T01:05:31;19.70;;;15.27;;
23642;SDS011;11998;55.788;37.572;2023-04-03T01:06:33;19.30;;;16.17;;
23642;SDS011;11998;55.788;37.572;2023-04-03T01:07:34;16.67;;;14.83;;
23642;SDS011;11998;55.788;37.572;2023-04-03T01:08:37;18.17;;;16.20;;
23642;SDS011;11998;55.788;37.572;2023-04-03T01:09:38;23.30;;;17.13;;
23642;SDS011;11998;55.788;37.572;2023-04-03T01:10:38;17.83;;;15.63;;
23642;SDS011;11998;55.788;37.572;2023-04-03T01:11:39;23.33;;;17.07;;
23642;SDS011;11998;55.788;37.572;2023-04-03T01:12:41;20.37;;;17.27;;
23642;SDS011;11998;55.788;37.572;2023-04-03T01:13:41;20.37;;;17.47;;
23642;SDS011;11998;55.788;37.572;2023-04-03T01:14:42;18.40;;;16.47;;
23642;SDS011;11998;55.788;37.572;2023-04-03T01:15:43;21.93;;;15.67;;
23642;SDS011;11998;55.788;37.572;2023-04-03T01:16:51;23.67;;;17.33;;
23642;SDS011;11998;55.788;37.572;2023-04-03T01:17:55;20.50;;;16.90;;
23642;SDS011;11998;55.788;37.572;2023-04-03T01:18:59;18.40;;;16.47;;
23642;SDS011;11998;55.788;37.572;2023-04-03T01:22:35;18.67;;;16.33;;
23642;SDS011;11998;55.788;37.572;2023-04-03T01:24:45;17.57;;;15.53;;
23642;SDS011;11998;55.788;37.572;2023-04-03T01:25:51;18.80;;;16.10;;
23642;SDS011;11998;55.788;37.572;2023-04-03T01:26:51;22.57;;;16.23;;
23642;SDS011;11998;55.788;37.572;2023-04-03T01:27:52;18.50;;;15.00;;
23642;SDS011;11998;55.788;37.572;2023-04-03T01:28:53;19.93;;;15.63;;
23642;SDS011;11998;55.788;37.572;2023-04-03T01:29:54;17.33;;;15.37;;
23642;SDS011;11998;55.788;37.572;2023-04-03T01:32:13;19.00;;;14.90;;
23642;SDS011;11998;55.788;37.572;2023-04-03T01:33:13;16.93;;;15.03;;
23642;SDS011;11998;55.788;37.572;2023-04-03T01:34:14;16.63;;;14.53;;
23642;SDS011;11998;55.788;37.572;2023-04-03T01:35:14;17.67;;;14.00;;
23642;SDS011;11998;55.788;37.572;2023-04-03T01:36:25;21.10;;;14.60;;
23642;SDS011;11998;55.788;37.572;2023-04-03T01:37:26;16.00;;;13.73;;
23642;SDS011;11998;55.788;37.572;2023-04-03T01:38:26;18.87;;;14.23;;
23642;SDS011;11998;55.788;37.572;2023-04-03T01:39:26;16.03;;;13.30;;
23642;SDS011;11998;55.788;37.572;2023-04-03T01:40:27;18.80;;;13.47;;
23642;SDS011;11998;55.788;37.572;2023-04-03T01:41:27;16.60;;;12.67;;
23642;SDS011;11998;55.788;37.572;2023-04-03T01:42:28;16.27;;;13.30;;
23642;SDS011;11998;55.788;37.572;2023-04-03T01:43:29;14.47;;;12.37;;
23642;SDS011;11998;55.788;37.572;2023-04-03T01:44:29;16.10;;;12.63;;
23642;SDS011;11998;55.788;37.572;2023-04-03T01:45:30;16.07;;;13.10;;
23642;SDS011;11998;55.788;37.572;2023-04-03T01:46:31;14.97;;;12.80;;
23642;SDS011;11998;55.788;37.572;2023-04-03T01:47:31;16.40;;;13.03;;
23642;SDS011;11998;55.788;37.572;2023-04-03T01:48:32;17.53;;;12.50;;
23642;SDS011;11998;55.788;37.572;2023-04-03T01:49:32;16.73;;;13.13;;
23642;SDS011;11998;55.788;37.572;2023-04-03T01:50:32;12.87;;;11.50;;
23642;SDS011;11998;55.788;37.572;2023-04-03T01:51:33;18.10;;;12.27;;
23642;SDS011;11998;55.788;37.572;2023-04-03T01:52:33;13.57;;;12.07;;
23642;SDS011;11998;55.788;37.572;2023-04-03T01:53:33;14.47;;;12.40;;
23642;SDS011;11998;55.788;37.572;2023-04-03T01:54:34;20.73;;;12.73;;
23642;SDS011;11998;55.788;37.572;2023-04-03T01:55:34;18.57;;;12.30;;
23642;SDS011;11998;55.788;37.572;2023-04-03T01:56:35;17.00;;;11.83;;
23642;SDS011;11998;55.788;37.572;2023-04-03T01:57:35;17.00;;;12.20;;
23642;SDS011;11998;55.788;37.572;2023-04-03T01:58:36;13.97;;;11.53;;
23642;SDS011;11998;55.788;37.572;2023-04-03T01:59:36;17.93;;;12.80;;
23642;SDS011;11998;55.788;37.572;2023-04-03T02:00:36;15.63;;;11.70;;
23642;SDS011;11998;55.788;37.572;2023-04-03T02:01:37;16.00;;;12.10;;
23642;SDS011;11998;55.788;37.572;2023-04-03T02:02:37;17.53;;;12.07;;
23642;SDS011;11998;55.788;37.572;2023-04-03T02:03:37;12.70;;;10.73;;
23642;SDS011;11998;55.788;37.572;2023-04-03T02:04:38;16.37;;;11.47;;
23642;SDS011;11998;55.788;37.572;2023-04-03T02:05:38;13.03;;;11.07;;
23642;SDS011;11998;55.788;37.572;2023-04-03T02:06:38;14.13;;;10.63;;
23642;SDS011;11998;55.788;37.572;2023-04-03T02:07:39;19.73;;;12.03;;
23642;SDS011;11998;55.788;37.572;2023-04-03T02:08:40;12.70;;;9.97;;
23642;SDS011;11998;55.788;37.572;2023-04-03T02:09:41;13.30;;;10.97;;
23642;SDS011;11998;55.788;37.572;2023-04-03T02:10:42;14.37;;;10.87;;
23642;SDS011;11998;55.788;37.572;2023-04-03T02:11:42;16.60;;;10.70;;
23642;SDS011;11998;55.788;37.572;2023-04-03T02:12:42;13.60;;;10.37;;
23642;SDS011;11998;55.788;37.572;2023-04-03T02:13:43;13.10;;;10.77;;
23642;SDS011;11998;55.788;37.572;2023-04-03T02:14:43;17.43;;;10.53;;
23642;SDS011;11998;55.788;37.572;2023-04-03T02:15:43;15.67;;;10.23;;
23642;SDS011;11998;55.788;37.572;2023-04-03T02:16:45;15.13;;;10.30;;
23642;SDS011;11998;55.788;37.572;2023-04-03T02:17:45;14.27;;;10.70;;
23642;SDS011;11998;55.788;37.572;2023-04-03T02:18:45;14.80;;;10.37;;
23642;SDS011;11998;55.788;37.572;2023-04-03T02:19:46;14.07;;;10.43;;
23642;SDS011;11998;55.788;37.572;2023-04-03T02:20:46;14.60;;;11.10;;
23642;SDS011;11998;55.788;37.572;2023-04-03T02:21:47;12.57;;;10.40;;
23642;SDS011;11998;55.788;37.572;2023-04-03T02:22:47;13.57;;;10.20;;
23642;SDS011;11998;55.788;37.572;2023-04-03T02:23:48;17.67;;;11.40;;
23642;SDS011;11998;55.788;37.572;2023-04-03T02:24:48;13.07;;;10.40;;
23642;SDS011;11998;55.788;37.572;2023-04-03T02:25:49;13.40;;;10.40;;
23642;SDS011;11998;55.788;37.572;2023-04-03T02:26:49;17.50;;;11.70;;
23642;SDS011;11998;55.788;37.572;2023-04-03T02:27:49;15.67;;;10.77;;
23642;SDS011;11998;55.788;37.572;2023-04-03T02:28:50;16.43;;;10.57;;
23642;SDS011;11998;55.788;37.572;2023-04-03T02:29:50;16.80;;;11.13;;
23642;SDS011;11998;55.788;37.572;2023-04-03T02:30:50;15.47;;;11.00;;
23642;SDS011;11998;55.788;37.572;2023-04-03T02:31:51;15.33;;;10.80;;
23642;SDS011;11998;55.788;37.572;2023-04-03T02:32:51;13.53;;;10.67;;
23642;SDS011;11998;55.788;37.572;2023-04-03T02:33:52;14.40;;;10.83;;
23642;SDS011;11998;55.788;37.572;2023-04-03T02:34:52;15.47;;;10.57;;
23642;SDS011;11998;55.788;37.572;2023-04-03T02:35:53;12.90;;;10.57;;
23642;SDS011;11998;55.788;37.572;2023-04-03T02:36:54;16.33;;;10.60;;
23642;SDS011;11998;55.788;37.572;2023-04-03T02:37:54;13.30;;;10.47;;
23642;SDS011;11998;55.788;37.572;2023-04-03T02:38:54;17.17;;;10.90;;
23642;SDS011;11998;55.788;37.572;2023-04-03T02:39:55;14.23;;;10.50;;
23642;SDS011;11998;55.788;37.572;2023-04-03T02:41:05;15.10;;;10.03;;
23642;SDS011;11998;55.788;37.572;2023-04-03T02:42:06;14.17;;;10.07;;
23642;SDS011;11998;55.788;37.572;2023-04-03T02:43:07;14.30;;;10.47;;
23642;SDS011;11998;55.788;37.572;2023-04-03T02:44:09;16.93;;;10.97;;
23642;SDS011;11998;55.788;37.572;2023-04-03T02:45:09;14.80;;;10.03;;
23642;SDS011;11998;55.788;37.572;2023-04-03T02:46:10;16.60;;;10.47;;
23642;SDS011;11998;55.788;37.572;2023-04-03T02:47:10;14.33;;;10.77;;
23642;SDS011;11998;55.788;37.572;2023-04-03T02:48:11;13.27;;;10.00;;
23642;SDS011;11998;55.788;37.572;2023-04-03T02:49:12;11.93;;;10.40;;
23642;SDS011;11998;55.788;37.572;2023-04-03T02:50:12;18.63;;;11.03;;
23642;SDS011;11998;55.788;37.572;2023-04-03T02:51:12;14.87;;;11.13;;
23642;SDS011;11998;55.788;37.572;2023-04-03T02:52:13;13.57;;;10.10;;
23642;SDS011;11998;55.788;37.572;2023-04-03T02:53:13;15.37;;;11.10;;
23642;SDS011;11998;55.788;37.572;2023-04-03T02:54:15;15.03;;;10.33;;
23642;SDS011;11998;55.788;37.572;2023-04-03T02:55:15;13.97;;;10.10;;
23642;SDS011;11998;55.788;37.572;2023-04-03T02:56:16;17.17;;;10.57;;
23642;SDS011;11998;55.788;37.572;2023-04-03T02:57:17;14.50;;;10.77;;
23642;SDS011;11998;55.788;37.572;2023-04-03T02:58:17;12.60;;;10.00;;
23642;SDS011;11998;55.788;37.572;2023-04-03T02:59:17;15.63;;;11.00;;
23642;SDS011;11998;55.788;37.572;2023-04-03T03:00:18;14.23;;;10.57;;
23642;SDS011;11998;55.788;37.572;2023-04-03T03:01:18;14.87;;;10.90;;
23642;SDS011;11998;55.788;37.572;2023-04-03T03:02:19;16.43;;;10.63;;
23642;SDS011;11998;55.788;37.572;2023-04-03T03:03:19;18.40;;;11.10;;
23642;SDS011;11998;55.788;37.572;2023-04-03T03:04:20;17.63;;;10.60;;
23642;SDS011;11998;55.788;37.572;2023-04-03T03:05:20;20.10;;;11.10;;
23642;SDS011;11998;55.788;37.572;2023-04-03T03:06:21;21.80;;;11.20;;
23642;SDS011;11998;55.788;37.572;2023-04-03T03:07:21;19.53;;;11.67;;
23642;SDS011;11998;55.788;37.572;2023-04-03T03:08:22;15.33;;;10.73;;
23642;SDS011;11998;55.788;37.572;2023-04-03T03:09:22;15.40;;;10.30;;
23642;SDS011;11998;55.788;37.572;2023-04-03T03:10:22;18.63;;;12.07;;
23642;SDS011;11998;55.788;37.572;2023-04-03T03:11:23;15.13;;;10.23;;
23642;SDS011;11998;55.788;37.572;2023-04-03T03:12:23;16.03;;;10.70;;
23642;SDS011;11998;55.788;37.572;2023-04-03T03:13:24;16.73;;;10.70;;
23642;SDS011;11998;55.788;37.572;2023-04-03T03:14:25;14.17;;;11.87;;
23642;SDS011;11998;55.788;37.572;2023-04-03T03:15:25;16.23;;;11.07;;
23642;SDS011;11998;55.788;37.572;2023-04-03T03:16:26;14.50;;;11.47;;
23642;SDS011;11998;55.788;37.572;2023-04-03T03:17:26;15.33;;;10.40;;
23642;SDS011;11998;55.788;37.572;2023-04-03T03:18:26;15.13;;;11.30;;
23642;SDS011;11998;55.788;37.572;2023-04-03T03:19:27;18.13;;;11.80;;
23642;SDS011;11998;55.788;37.572;2023-04-03T03:20:27;13.87;;;11.20;;
23642;SDS011;11998;55.788;37.572;2023-04-03T03:21:28;17.40;;;11.83;;
23642;SDS011;11998;55.788;37.572;2023-04-03T03:22:28;16.27;;;11.87;;
23642;SDS011;11998;55.788;37.572;2023-04-03T03:23:29;16.60;;;11.37;;
23642;SDS011;11998;55.788;37.572;2023-04-03T03:24:29;21.20;;;11.67;;
23642;SDS011;11998;55.788;37.572;2023-04-03T03:25:31;17.47;;;11.90;;
23642;SDS011;11998;55.788;37.572;2023-04-03T03:26:32;13.40;;;11.23;;
23642;SDS011;11998;55.788;37.572;2023-04-03T03:27:32;13.23;;;10.40;;
23642;SDS011;11998;55.788;37.572;2023-04-03T03:28:33;16.50;;;11.53;;
23642;SDS011;11998;55.788;37.572;2023-04-03T03:29:33;16.33;;;11.83;;
23642;SDS011;11998;55.788;37.572;2023-04-03T03:30:34;15.03;;;11.33;;
23642;SDS011;11998;55.788;37.572;2023-04-03T03:31:35;16.43;;;11.03;;
23642;SDS011;11998;55.788;37.572;2023-04-03T03:32:35;18.17;;;10.93;;
23642;SDS011;11998;55.788;37.572;2023-04-03T03:33:36;16.73;;;11.90;;
23642;SDS011;11998;55.788;37.572;2023-04-03T03:34:36;13.70;;;10.80;;
23642;SDS011;11998;55.788;37.572;2023-04-03T03:35:36;15.93;;;11.77;;
23642;SDS011;11998;55.788;37.572;2023-04-03T03:36:37;19.27;;;11.83;;
23642;SDS011;11998;55.788;37.572;2023-04-03T03:37:37;14.43;;;11.37;;
23642;SDS011;11998;55.788;37.572;2023-04-03T03:38:37;16.47;;;11.70;;
23642;SDS011;11998;55.788;37.572;2023-04-03T03:39:38;15.87;;;11.10;;
23642;SDS011;11998;55.788;37.572;2023-04-03T03:40:38;15.47;;;11.30;;
23642;SDS011;11998;55.788;37.572;2023-04-03T03:41:39;14.77;;;11.30;;
23642;SDS011;11998;55.788;37.572;2023-04-03T03:42:39;16.43;;;11.00;;
23642;SDS011;11998;55.788;37.572;2023-04-03T03:43:40;17.00;;;12.40;;
23642;SDS011;11998;55.788;37.572;2023-04-03T03:44:40;14.53;;;11.43;;
23642;SDS011;11998;55.788;37.572;2023-04-03T03:45:40;14.23;;;11.90;;
23642;SDS011;11998;55.788;37.572;2023-04-03T03:46:41;17.30;;;11.27;;
23642;SDS011;11998;55.788;37.572;2023-04-03T03:47:41;17.10;;;11.00;;
23642;SDS011;11998;55.788;37.572;2023-04-03T03:48:42;15.67;;;11.57;;
23642;SDS011;11998;55.788;37.572;2023-04-03T03:49:42;15.10;;;11.37;;
23642;SDS011;11998;55.788;37.572;2023-04-03T03:50:42;17.03;;;11.57;;
23642;SDS011;11998;55.788;37.572;2023-04-03T03:51:43;15.97;;;11.80;;
23642;SDS011;11998;55.788;37.572;2023-04-03T03:52:43;15.33;;;11.67;;
23642;SDS011;11998;55.788;37.572;2023-04-03T03:53:44;13.17;;;10.83;;
23642;SDS011;11998;55.788;37.572;2023-04-03T03:54:45;16.10;;;11.70;;
23642;SDS011;11998;55.788;37.572;2023-04-03T03:55:45;18.07;;;12.80;;
23642;SDS011;11998;55.788;37.572;2023-04-03T03:56:46;16.90;;;11.53;;
23642;SDS011;11998;55.788;37.572;2023-04-03T03:57:46;16.80;;;12.83;;
23642;SDS011;11998;55.788;37.572;2023-04-03T03:58:47;17.63;;;12.63;;
23642;SDS011;11998;55.788;37.572;2023-04-03T03:59:47;17.47;;;12.23;;
23642;SDS011;11998;55.788;37.572;2023-04-03T04:00:48;17.20;;;11.53;;
23642;SDS011;11998;55.788;37.572;2023-04-03T04:01:49;19.70;;;11.40;;
23642;SDS011;11998;55.788;37.572;2023-04-03T04:02:50;16.23;;;11.23;;
23642;SDS011;11998;55.788;37.572;2023-04-03T04:03:50;18.27;;;12.13;;
23642;SDS011;11998;55.788;37.572;2023-04-03T04:04:50;17.77;;;12.03;;
23642;SDS011;11998;55.788;37.572;2023-04-03T04:05:51;18.60;;;13.27;;
23642;SDS011;11998;55.788;37.572;2023-04-03T04:06:51;18.77;;;12.57;;
23642;SDS011;11998;55.788;37.572;2023-04-03T04:07:52;17.70;;;12.57;;
23642;SDS011;11998;55.788;37.572;2023-04-03T04:08:52;17.07;;;12.70;;
23642;SDS011;11998;55.788;37.572;2023-04-03T04:09:53;17.90;;;12.63;;
23642;SDS011;11998;55.788;37.572;2023-04-03T04:10:54;18.60;;;12.40;;
23642;SDS011;11998;55.788;37.572;2023-04-03T04:11:54;17.47;;;12.37;;
23642;SDS011;11998;55.788;37.572;2023-04-03T04:12:55;21.07;;;12.17;;
23642;SDS011;11998;55.788;37.572;2023-04-03T04:13:55;16.73;;;12.20;;
23642;SDS011;11998;55.788;37.572;2023-04-03T04:14:56;19.37;;;12.90;;
23642;SDS011;11998;55.788;37.572;2023-04-03T04:15:56;15.80;;;12.50;;
23642;SDS011;11998;55.788;37.572;2023-04-03T04:16:57;20.73;;;12.80;;
23642;SDS011;11998;55.788;37.572;2023-04-03T04:17:57;15.77;;;12.90;;
23642;SDS011;11998;55.788;37.572;2023-04-03T04:18:58;18.87;;;12.87;;
23642;SDS011;11998;55.788;37.572;2023-04-03T04:19:58;20.20;;;13.50;;
23642;SDS011;11998;55.788;37.572;2023-04-03T04:20:59;20.63;;;13.43;;
23642;SDS011;11998;55.788;37.572;2023-04-03T04:21:59;18.40;;;13.37;;
23642;SDS011;11998;55.788;37.572;2023-04-03T04:22:59;22.70;;;13.30;;
23642;SDS011;11998;55.788;37.572;2023-04-03T04:24:00;17.10;;;12.47;;
23642;SDS011;11998;55.788;37.572;2023-04-03T04:25:00;17.53;;;12.47;;
23642;SDS011;11998;55.788;37.572;2023-04-03T04:26:01;23.67;;;14.30;;
23642;SDS011;11998;55.788;37.572;2023-04-03T04:27:02;15.17;;;12.80;;
23642;SDS011;11998;55.788;37.572;2023-04-03T04:28:02;19.17;;;13.00;;
23642;SDS011;11998;55.788;37.572;2023-04-03T04:29:03;21.03;;;13.97;;
23642;SDS011;11998;55.788;37.572;2023-04-03T04:30:03;19.60;;;14.07;;
23642;SDS011;11998;55.788;37.572;2023-04-03T04:31:04;21.23;;;13.57;;
23642;SDS011;11998;55.788;37.572;2023-04-03T04:32:04;22.90;;;13.57;;
23642;SDS011;11998;55.788;37.572;2023-04-03T04:33:05;18.77;;;13.63;;
23642;SDS011;11998;55.788;37.572;2023-04-03T04:34:05;19.27;;;13.33;;
23642;SDS011;11998;55.788;37.572;2023-04-03T04:35:06;22.27;;;13.83;;
23642;SDS011;11998;55.788;37.572;2023-04-03T04:36:06;19.07;;;13.43;;
23642;SDS011;11998;55.788;37.572;2023-04-03T04:37:07;17.77;;;14.30;;
23642;SDS011;11998;55.788;37.572;2023-04-03T04:38:07;19.80;;;13.87;;
23642;SDS011;11998;55.788;37.572;2023-04-03T04:39:08;17.73;;;14.07;;
23642;SDS011;11998;55.788;37.572;2023-04-03T04:40:09;21.97;;;16.17;;
23642;SDS011;11998;55.788;37.572;2023-04-03T04:41:09;16.90;;;13.70;;
23642;SDS011;11998;55.788;37.572;2023-04-03T04:42:10;19.30;;;15.37;;
23642;SDS011;11998;55.788;37.572;2023-04-03T04:43:12;18.20;;;15.07;;
23642;SDS011;11998;55.788;37.572;2023-04-03T04:44:14;18.00;;;14.30;;
23642;SDS011;11998;55.788;37.572;2023-04-03T04:45:14;20.13;;;14.67;;
23642;SDS011;11998;55.788;37.572;2023-04-03T04:46:15;22.30;;;15.37;;
23642;SDS011;11998;55.788;37.572;2023-04-03T04:47:16;20.47;;;14.83;;
23642;SDS011;11998;55.788;37.572;2023-04-03T04:48:16;20.47;;;15.07;;
23642;SDS011;11998;55.788;37.572;2023-04-03T04:49:17;19.63;;;14.73;;
23642;SDS011;11998;55.788;37.572;2023-04-03T04:50:17;18.80;;;15.10;;
23642;SDS011;11998;55.788;37.572;2023-04-03T04:51:17;21.03;;;14.67;;
23642;SDS011;11998;55.788;37.572;2023-04-03T04:52:18;22.93;;;15.37;;
23642;SDS011;11998;55.788;37.572;2023-04-03T04:53:18;19.40;;;15.53;;
23642;SDS011;11998;55.788;37.572;2023-04-03T04:54:18;20.30;;;15.10;;
23642;SDS011;11998;55.788;37.572;2023-04-03T04:55:19;21.20;;;14.93;;
23642;SDS011;11998;55.788;37.572;2023-04-03T04:56:19;21.90;;;16.10;;
23642;SDS011;11998;55.788;37.572;2023-04-03T04:57:20;21.23;;;16.13;;
23642;SDS011;11998;55.788;37.572;2023-04-03T04:58:21;27.43;;;15.60;;
23642;SDS011;11998;55.788;37.572;2023-04-03T04:59:21;23.97;;;16.50;;
23642;SDS011;11998;55.788;37.572;2023-04-03T05:00:22;24.13;;;16.00;;
23642;SDS011;11998;55.788;37.572;2023-04-03T05:01:22;29.03;;;16.60;;
23642;SDS011;11998;55.788;37.572;2023-04-03T05:02:22;21.57;;;16.07;;
23642;SDS011;11998;55.788;37.572;2023-04-03T05:03:23;22.17;;;15.67;;
23642;SDS011;11998;55.788;37.572;2023-04-03T05:04:23;19.97;;;15.53;;
23642;SDS011;11998;55.788;37.572;2023-04-03T05:05:23;21.67;;;15.70;;
23642;SDS011;11998;55.788;37.572;2023-04-03T05:06:24;22.60;;;16.20;;
23642;SDS011;11998;55.788;37.572;2023-04-03T05:07:24;24.57;;;17.10;;
23642;SDS011;11998;55.788;37.572;2023-04-03T05:08:25;21.17;;;16.53;;
23642;SDS011;11998;55.788;37.572;2023-04-03T05:09:25;21.63;;;16.93;;
23642;SDS011;11998;55.788;37.572;2023-04-03T05:10:25;25.43;;;17.00;;
23642;SDS011;11998;55.788;37.572;2023-04-03T05:11:26;23.37;;;17.10;;
23642;SDS011;11998;55.788;37.572;2023-04-03T05:12:26;23.13;;;17.03;;
23642;SDS011;11998;55.788;37.572;2023-04-03T05:13:27;22.30;;;16.90;;
23642;SDS011;11998;55.788;37.572;2023-04-03T05:14:27;23.37;;;17.20;;
23642;SDS011;11998;55.788;37.572;2023-04-03T05:15:27;31.00;;;17.03;;
23642;SDS011;11998;55.788;37.572;2023-04-03T05:16:28;25.67;;;18.10;;
23642;SDS011;11998;55.788;37.572;2023-04-03T05:17:28;23.33;;;17.03;;
23642;SDS011;11998;55.788;37.572;2023-04-03T05:18:28;23.27;;;18.13;;
23642;SDS011;11998;55.788;37.572;2023-04-03T05:19:29;22.03;;;17.30;;
23642;SDS011;11998;55.788;37.572;2023-04-03T05:20:29;28.83;;;17.60;;
23642;SDS011;11998;55.788;37.572;2023-04-03T05:21:30;22.47;;;17.53;;
23642;SDS011;11998;55.788;37.572;2023-04-03T05:22:32;25.27;;;17.23;;
23642;SDS011;11998;55.788;37.572;2023-04-03T05:23:32;25.90;;;18.47;;
23642;SDS011;11998;55.788;37.572;2023-04-03T05:24:33;25.47;;;17.97;;
23642;SDS011;11998;55.788;37.572;2023-04-03T05:25:33;22.67;;;17.60;;
23642;SDS011;11998;55.788;37.572;2023-04-03T05:26:33;25.23;;;18.70;;
23642;SDS011;11998;55.788;37.572;2023-04-03T05:27:34;27.07;;;18.23;;
23642;SDS011;11998;55.788;37.572;2023-04-03T05:28:34;22.73;;;17.70;;
23642;SDS011;11998;55.788;37.572;2023-04-03T05:29:35;24.27;;;18.30;;
23642;SDS011;11998;55.788;37.572;2023-04-03T05:30:35;23.10;;;17.90;;
23642;SDS011;11998;55.788;37.572;2023-04-03T05:31:35;25.03;;;16.83;;
23642;SDS011;11998;55.788;37.572;2023-04-03T05:32:36;22.60;;;16.67;;
23642;SDS011;11998;55.788;37.572;2023-04-03T05:33:36;23.13;;;17.50;;
23642;SDS011;11998;55.788;37.572;2023-04-03T05:34:38;19.80;;;16.20;;
23642;SDS011;11998;55.788;37.572;2023-04-03T05:35:38;25.03;;;17.60;;
23642;SDS011;11998;55.788;37.572;2023-04-03T05:36:40;20.17;;;16.27;;
23642;SDS011;11998;55.788;37.572;2023-04-03T05:37:41;23.87;;;16.93;;
23642;SDS011;11998;55.788;37.572;2023-04-03T05:38:41;23.97;;;16.17;;
23642;SDS011;11998;55.788;37.572;2023-04-03T05:39:42;23.97;;;16.77;;
23642;SDS011;11998;55.788;37.572;2023-04-03T05:40:42;22.27;;;16.38;;
23642;SDS011;11998;55.788;37.572;2023-04-03T05:41:43;21.33;;;16.27;;
23642;SDS011;11998;55.788;37.572;2023-04-03T05:42:43;22.55;;;16.77;;
23642;SDS011;11998;55.788;37.572;2023-04-03T05:43:44;24.08;;;16.05;;
23642;SDS011;11998;55.788;37.572;2023-04-03T05:44:44;21.27;;;15.82;;
23642;SDS011;11998;55.788;37.572;2023-04-03T05:45:47;21.75;;;15.68;;
23642;SDS011;11998;55.788;37.572;2023-04-03T05:46:47;19.90;;;15.43;;
23642;SDS011;11998;55.788;37.572;2023-04-03T05:47:48;22.65;;;15.82;;
23642;SDS011;11998;55.788;37.572;2023-04-03T05:48:48;19.40;;;16.30;;
23642;SDS011;11998;55.788;37.572;2023-04-03T05:49:49;19.25;;;15.48;;
23642;SDS011;11998;55.788;37.572;2023-04-03T05:50:49;23.10;;;15.02;;
23642;SDS011;11998;55.788;37.572;2023-04-03T05:51:49;19.15;;;14.45;;
23642;SDS011;11998;55.788;37.572;2023-04-03T05:52:52;20.60;;;14.73;;
23642;SDS011;11998;55.788;37.572;2023-04-03T05:53:55;20.10;;;14.93;;
23642;SDS011;11998;55.788;37.572;2023-04-03T05:54:56;19.50;;;14.50;;
23642;SDS011;11998;55.788;37.572;2023-04-03T05:55:57;22.27;;;14.80;;